Time;durP1;ratioP1;P1;durP2;ratioP2;P2;SDS_P1;SDS_P2;PMS_P1;PMS_P2;Temp;Humidity;BMP_temperature;BMP_pressure;BME280_temperature;BME280_humidity;BME280_pressure;Samples;Min_cycle;Max_cycle;Signal;HPM_P1;HPM_P2
2022/08/07 06:13:10;;;;;;;13.10;12.30;;;24.80;84.40;;;;;;4939609;23;20529;-70
2022/08/07 06:15:39;;;;;;;12.40;11.60;;;24.50;84.30;;;;;;4938396;29;21006;-72
2022/08/07 06:18:07;;;;;;;12.00;11.40;;;24.70;84.30;;;;;;4938651;29;20468;-71
2022/08/07 06:20:35;;;;;;;11.90;11.50;;;24.90;83.80;;;;;;4938670;29;20472;-71
2022/08/07 06:23:04;;;;;;;11.70;11.30;;;25.00;82.70;;;;;;4938559;29;20536;-73
2022/08/07 06:25:31;;;;;;;11.53;11.13;;;25.40;82.80;;;;;;4938045;29;20450;-71
2022/08/07 06:28:02;;;;;;;12.37;11.87;;;25.70;81.10;;;;;;4937397;29;20464;-71
2022/08/07 06:30:31;;;;;;;12.07;11.57;;;26.00;81.00;;;;;;4936036;29;20457;-72
2022/08/07 06:32:58;;;;;;;12.03;11.23;;;26.10;80.40;;;;;;4935387;29;20924;-71
2022/08/07 06:35:25;;;;;;;12.50;12.00;;;26.10;80.30;;;;;;4935491;29;20497;-73
2022/08/07 06:37:51;;;;;;;11.03;10.63;;;26.30;80.30;;;;;;4935340;29;20944;-74
2022/08/07 06:40:18;;;;;;;12.07;11.67;;;26.40;79.90;;;;;;4935532;29;20457;-74
2022/08/07 06:42:48;;;;;;;12.63;12.23;;;26.80;79.60;;;;;;4935489;29;20865;-74
2022/08/07 06:45:17;;;;;;;11.50;11.07;;;27.10;79.10;;;;;;4935251;29;20453;-75
2022/08/07 06:47:46;;;;;;;13.00;12.50;;;27.30;77.80;;;;;;4935107;29;20956;-74
2022/08/07 06:50:13;;;;;;;13.00;12.60;;;28.00;75.60;;;;;;4935273;29;20861;-72
2022/08/07 06:52:46;;;;;;;13.00;12.50;;;28.50;72.60;;;;;;4935094;29;20576;-73
2022/08/07 06:55:17;;;;;;;13.07;12.60;;;28.30;72.60;;;;;;4934826;29;20496;-71
2022/08/07 06:57:45;;;;;;;13.30;12.80;;;28.40;72.30;;;;;;4935011;29;20928;-71
2022/08/07 07:00:13;;;;;;;12.53;12.13;;;28.40;72.60;;;;;;4933347;29;20469;-71
2022/08/07 07:02:41;;;;;;;12.83;12.33;;;28.80;71.60;;;;;;4934508;29;20450;-71
2022/08/07 07:05:10;;;;;;;12.30;11.80;;;29.30;70.30;;;;;;4934364;29;20508;-72
2022/08/07 07:07:36;;;;;;;13.70;13.10;;;29.20;70.20;;;;;;4934364;29;20461;-72
2022/08/07 07:10:04;;;;;;;13.83;13.33;;;29.30;68.80;;;;;;4933743;29;20481;-72
2022/08/07 07:12:40;;;;;;;13.20;12.60;;;29.40;68.70;;;;;;4934439;29;20493;-74
2022/08/07 07:15:13;;;;;;;14.00;13.50;;;28.80;69.30;;;;;;4934322;29;20492;-72
2022/08/07 07:17:45;;;;;;;12.13;11.53;;;28.60;70.00;;;;;;4934410;29;20559;-72
2022/08/07 07:20:17;;;;;;;13.00;12.60;;;28.70;69.70;;;;;;4934344;29;20453;-72
2022/08/07 07:22:48;;;;;;;11.77;11.20;;;28.90;68.40;;;;;;4934291;29;20461;-72
2022/08/07 07:25:17;;;;;;;11.30;10.90;;;28.30;67.40;;;;;;4934179;29;20869;-71
2022/08/07 07:27:51;;;;;;;13.20;12.70;;;27.70;68.10;;;;;;4934337;29;20457;-71
2022/08/07 07:30:21;;;;;;;12.07;11.67;;;27.00;69.80;;;;;;4934306;29;20532;-71
2022/08/07 07:32:50;;;;;;;12.93;12.53;;;26.80;70.80;;;;;;4934226;29;20461;-71
2022/08/07 07:35:18;;;;;;;11.90;11.50;;;27.10;68.80;;;;;;4934051;29;20493;-71
2022/08/07 07:37:47;;;;;;;13.50;13.00;;;26.90;69.00;;;;;;4934010;29;20460;-72
2022/08/07 07:40:17;;;;;;;12.53;12.03;;;26.90;68.70;;;;;;4933912;29;21010;-71
2022/08/07 07:42:44;;;;;;;10.37;10.07;;;26.70;67.50;;;;;;4934024;29;20967;-75
2022/08/07 07:45:14;;;;;;;10.90;10.30;;;26.10;68.10;;;;;;4934059;29;20457;-74
2022/08/07 07:47:43;;;;;;;11.30;10.90;;;26.10;69.10;;;;;;4934043;29;20861;-75
2022/08/07 07:50:12;;;;;;;11.40;11.00;;;26.10;69.00;;;;;;4933576;29;20469;-70
2022/08/07 07:52:43;;;;;;;11.97;11.43;;;26.40;67.70;;;;;;4933520;29;20869;-69
2022/08/07 07:55:10;;;;;;;11.80;11.40;;;26.70;67.20;;;;;;4933226;29;20500;-70
2022/08/07 07:57:39;;;;;;;12.60;12.20;;;26.70;66.10;;;;;;4933864;29;20458;-70
2022/08/07 08:00:08;;;;;;;12.37;11.20;;;26.40;67.70;;;;;;4933913;29;20468;-71
2022/08/07 08:02:37;;;;;;;11.00;10.40;;;26.70;65.80;;;;;;4934146;29;20489;-69
2022/08/07 08:05:06;;;;;;;10.90;10.50;;;26.80;65.80;;;;;;4931930;29;20449;-69
2022/08/07 08:07:35;;;;;;;11.10;10.70;;;26.80;65.20;;;;;;4933232;29;20816;-70
2022/08/07 08:10:04;;;;;;;11.13;10.73;;;26.70;65.70;;;;;;4933373;29;20482;-69
2022/08/07 08:12:32;;;;;;;10.67;10.37;;;27.10;64.80;;;;;;4933092;29;20485;-70
2022/08/07 08:15:00;;;;;;;11.00;10.63;;;27.70;62.80;;;;;;4932913;29;20493;-70
2022/08/07 08:17:33;;;;;;;11.70;11.20;;;28.30;61.90;;;;;;4932931;29;20449;-70
2022/08/07 08:20:03;;;;;;;11.00;10.70;;;28.60;61.70;;;;;;4933029;29;20457;-70
2022/08/07 08:28:08;;;;;;;11.40;10.90;;;29.50;58.10;;;;;;4932872;29;20773;-70
2022/08/07 08:30:38;;;;;;;11.53;11.13;;;29.20;57.40;;;;;;4932711;29;20495;-71
2022/08/07 08:33:06;;;;;;;10.60;10.30;;;29.10;57.40;;;;;;4932805;29;20501;-70
2022/08/07 08:35:34;;;;;;;11.50;11.10;;;28.80;57.80;;;;;;4932709;29;20489;-71
2022/08/07 08:38:02;;;;;;;10.53;10.23;;;28.90;58.40;;;;;;4932650;29;20449;-70
2022/08/07 08:40:33;;;;;;;10.80;10.50;;;29.60;56.50;;;;;;4932333;29;20457;-70
2022/08/07 08:43:08;;;;;;;11.87;11.37;;;29.30;54.00;;;;;;4932517;29;20489;-70
2022/08/07 08:45:41;;;;;;;11.27;10.80;;;28.90;54.50;;;;;;4932355;29;20761;-69
2022/08/07 08:48:14;;;;;;;11.10;10.70;;;29.20;54.10;;;;;;4932296;29;20464;-70
2022/08/07 08:50:48;;;;;;;11.53;11.13;;;28.40;54.00;;;;;;4932517;29;20458;-69
2022/08/07 08:53:25;;;;;;;10.53;10.23;;;28.20;54.10;;;;;;4932376;29;20982;-69
2022/08/07 08:55:56;;;;;;;11.50;11.10;;;28.40;53.60;;;;;;4930333;29;20485;-70
2022/08/07 08:58:31;;;;;;;11.40;11.00;;;28.90;53.40;;;;;;4932291;29;20571;-70
2022/08/07 09:01:02;;;;;;;11.50;11.10;;;28.60;50.70;;;;;;4930524;29;20516;-70
2022/08/07 09:03:34;;;;;;;11.37;10.97;;;28.60;52.40;;;;;;4932195;29;20552;-70
2022/08/07 09:06:21;;;;;;;11.10;10.80;;;28.50;51.70;;;;;;4932237;29;20446;-70
2022/08/07 09:08:56;;;;;;;11.40;11.00;;;28.50;51.30;;;;;;4932401;29;20460;-70
2022/08/07 09:11:39;;;;;;;10.73;10.43;;;28.40;51.40;;;;;;4931668;29;20533;-71
2022/08/07 09:14:11;;;;;;;11.27;10.97;;;28.50;51.10;;;;;;4932021;29;20568;-70
2022/08/07 09:16:49;;;;;;;11.70;11.03;;;28.30;51.70;;;;;;4932041;29;20572;-71
2022/08/07 09:19:25;;;;;;;10.50;10.10;;;29.10;50.60;;;;;;4932245;29;20460;-71
2022/08/07 09:22:02;;;;;;;10.73;10.33;;;29.00;50.10;;;;;;4932358;29;20468;-71
2022/08/07 09:24:53;;;;;;;10.63;10.23;;;29.20;50.50;;;;;;4931993;29;20461;-71
2022/08/07 09:27:33;;;;;;;10.47;10.17;;;29.00;50.00;;;;;;4932037;29;20556;-71
2022/08/07 09:30:05;;;;;;;11.10;10.70;;;28.70;51.10;;;;;;4932017;29;20457;-71
2022/08/07 09:32:49;;;;;;;10.80;10.50;;;29.40;48.80;;;;;;4932240;29;20456;-70
2022/08/07 09:35:25;;;;;;;11.10;10.70;;;29.80;47.70;;;;;;4935623;29;20481;-71
2022/08/07 09:38:02;;;;;;;11.10;10.80;;;29.90;47.80;;;;;;4935580;29;20453;-71
2022/08/07 09:40:37;;;;;;;11.23;10.83;;;29.40;47.70;;;;;;4935592;29;20456;-70
2022/08/07 09:43:18;;;;;;;11.20;10.80;;;29.40;47.90;;;;;;4935897;29;20472;-71
2022/08/07 09:45:58;;;;;;;11.80;11.30;;;30.10;46.80;;;;;;4935230;29;20449;-70
2022/08/07 09:48:35;;;;;;;11.07;10.77;;;30.60;45.00;;;;;;4935325;29;20924;-71
2022/08/07 09:51:21;;;;;;;11.47;11.07;;;30.90;43.90;;;;;;4935803;29;20453;-70
2022/08/07 09:53:52;;;;;;;12.60;12.20;;;31.80;42.80;;;;;;4935508;29;20469;-70
2022/08/07 09:56:58;;;;;;;11.47;11.07;;;31.80;41.40;;;;;;4935182;29;20516;-69
2022/08/07 09:59:46;;;;;;;11.67;11.37;;;32.00;41.00;;;;;;4935454;29;20453;-69
2022/08/07 10:02:39;;;;;;;11.80;11.33;;;32.00;39.90;;;;;;4935350;29;20503;-70
2022/08/07 10:05:30;;;;;;;11.97;11.60;;;31.00;40.20;;;;;;4935299;29;20453;-70
2022/08/07 10:08:09;;;;;;;10.97;10.67;;;31.30;41.20;;;;;;4935305;29;20483;-73
2022/08/07 10:10:48;;;;;;;12.33;11.57;;;31.80;39.60;;;;;;4935321;29;20480;-70
2022/08/07 10:13:30;;;;;;;11.80;11.40;;;31.70;39.90;;;;;;4935202;29;20449;-70
2022/08/07 10:16:29;;;;;;;11.27;10.97;;;31.50;39.70;;;;;;4935066;29;20515;-70
2022/08/07 10:19:15;;;;;;;11.00;10.70;;;31.10;39.10;;;;;;4934857;29;20580;-70
2022/08/07 10:21:53;;;;;;;10.00;9.70;;;30.80;39.80;;;;;;4935175;29;20903;-70
2022/08/07 10:24:34;;;;;;;10.70;10.20;;;30.00;40.00;;;;;;4935155;29;20541;-71
2022/08/07 10:27:20;;;;;;;10.73;10.43;;;29.70;41.50;;;;;;4935105;29;20568;-70
2022/08/07 10:30:02;;;;;;;11.40;11.00;;;30.50;41.30;;;;;;4935109;29;20445;-72
2022/08/07 10:33:06;;;;;;;10.90;10.40;;;32.00;39.50;;;;;;4934857;29;20461;-70
2022/08/07 10:35:45;;;;;;;11.73;11.33;;;32.20;38.70;;;;;;4935062;29;20587;-71
2022/08/07 10:38:23;;;;;;;11.60;11.20;;;31.80;38.80;;;;;;4934923;29;20990;-70
2022/08/07 10:40:56;;;;;;;11.37;10.97;;;31.40;39.00;;;;;;4934902;29;20489;-70
2022/08/07 10:43:30;;;;;;;11.20;10.90;;;31.30;39.40;;;;;;4934790;29;20944;-70
2022/08/07 10:46:00;;;;;;;10.83;10.53;;;30.90;39.90;;;;;;4934802;29;20457;-71
2022/08/07 10:48:40;;;;;;;11.00;10.70;;;31.10;40.00;;;;;;4934531;29;20457;-71
2022/08/07 10:51:17;;;;;;;12.53;11.93;;;31.80;39.10;;;;;;4934746;29;20727;-71
2022/08/07 10:53:50;;;;;;;11.80;11.20;;;32.90;37.90;;;;;;4934703;29;20458;-71
2022/08/07 10:56:27;;;;;;;11.40;11.00;;;32.40;37.50;;;;;;4934608;29;20489;-71
2022/08/07 10:59:06;;;;;;;10.70;10.40;;;32.80;37.50;;;;;;4934513;29;20461;-71
2022/08/07 11:01:40;;;;;;;10.90;10.60;;;31.50;39.00;;;;;;4934860;29;20464;-71
2022/08/07 11:04:17;;;;;;;11.33;10.93;;;31.00;39.50;;;;;;4934625;29;20587;-70
2022/08/07 11:06:53;;;;;;;10.57;10.27;;;31.40;39.10;;;;;;4934156;29;20796;-70
2022/08/07 11:09:25;;;;;;;10.73;10.43;;;31.70;38.70;;;;;;4934456;29;20955;-71
2022/08/07 11:11:58;;;;;;;10.70;10.40;;;30.90;39.10;;;;;;4934226;29;20971;-71
2022/08/07 11:14:30;;;;;;;11.77;11.37;;;30.10;40.80;;;;;;4934262;29;20881;-70
2022/08/07 11:17:01;;;;;;;10.40;10.07;;;30.70;40.40;;;;;;4934064;29;21038;-70
2022/08/07 11:19:38;;;;;;;9.73;9.43;;;31.30;39.30;;;;;;4934258;29;20454;-71
2022/08/07 11:22:10;;;;;;;11.10;10.70;;;31.80;38.60;;;;;;4934368;29;20536;-71
2022/08/07 11:24:49;;;;;;;10.97;10.60;;;33.00;37.60;;;;;;4934201;29;20449;-71
2022/08/07 11:27:27;;;;;;;13.13;12.73;;;34.00;36.10;;;;;;4934431;29;20817;-70
2022/08/07 11:29:59;;;;;;;11.60;11.20;;;33.30;36.30;;;;;;4934049;29;20456;-71
2022/08/07 11:32:34;;;;;;;12.40;12.00;;;32.20;37.50;;;;;;4933728;29;20453;-71
2022/08/07 11:35:06;;;;;;;12.50;12.00;;;32.00;37.80;;;;;;4934106;29;20461;-71
2022/08/07 11:37:49;;;;;;;10.67;10.37;;;32.60;36.90;;;;;;4934110;29;20489;-72
2022/08/07 11:40:26;;;;;;;10.50;10.20;;;32.20;37.60;;;;;;4933728;29;21006;-71
2022/08/07 11:42:58;;;;;;;10.77;10.37;;;31.10;38.50;;;;;;4933567;29;20457;-71
2022/08/07 11:45:33;;;;;;;10.70;10.40;;;30.70;39.60;;;;;;4933598;29;20454;-72
2022/08/07 11:48:22;;;;;;;11.80;11.40;;;31.80;38.20;;;;;;4933864;29;20449;-70
2022/08/07 11:51:08;;;;;;;12.67;12.27;;;31.80;37.20;;;;;;4933920;29;20458;-71
2022/08/07 11:53:46;;;;;;;12.27;11.87;;;31.40;37.80;;;;;;4933939;29;21014;-71
2022/08/07 11:56:27;;;;;;;9.80;9.50;;;32.20;37.90;;;;;;4932752;29;21099;-71
2022/08/07 11:59:06;;;;;;;12.03;11.63;;;33.30;36.10;;;;;;4933495;29;20462;-71
2022/08/07 12:01:46;;;;;;;12.43;11.93;;;34.10;35.50;;;;;;4933586;29;20464;-72
2022/08/07 12:04:38;;;;;;;12.20;11.80;;;33.60;34.60;;;;;;4933230;29;20461;-71
2022/08/07 12:07:14;;;;;;;12.13;11.80;;;32.70;35.70;;;;;;4933579;29;20462;-71
2022/08/07 12:09:49;;;;;;;10.63;10.33;;;33.50;35.40;;;;;;4932877;29;20695;-71
2022/08/07 12:12:21;;;;;;;10.97;10.67;;;32.80;35.60;;;;;;4933212;29;20516;-71
2022/08/07 12:14:55;;;;;;;9.90;9.60;;;32.30;36.90;;;;;;4933291;29;20461;-71
2022/08/07 12:17:28;;;;;;;9.53;9.20;;;32.70;35.80;;;;;;4933058;29;20493;-72
2022/08/07 12:19:59;;;;;;;11.50;11.20;;;32.70;35.80;;;;;;4933060;29;20995;-72
2022/08/07 12:22:41;;;;;;;11.83;11.53;;;32.60;35.50;;;;;;4933182;29;20449;-71
2022/08/07 12:28:17;;;;;;;12.40;12.00;;;33.00;34.90;;;;;;4874172;29;20451;-71
2022/08/07 12:30:49;;;;;;;10.70;10.30;;;32.20;35.70;;;;;;4873897;29;20451;-72
2022/08/07 12:33:19;;;;;;;12.63;12.23;;;32.40;35.70;;;;;;4903516;29;20460;-71
2022/08/07 12:35:49;;;;;;;11.50;11.10;;;33.40;35.00;;;;;;4932580;29;20512;-71
2022/08/07 12:38:19;;;;;;;11.53;11.13;;;33.40;34.70;;;;;;4932901;29;20453;-69
2022/08/07 12:40:49;;;;;;;12.27;11.43;;;33.50;34.80;;;;;;4932674;29;20461;-70
2022/08/07 12:43:20;;;;;;;11.83;11.43;;;33.50;34.70;;;;;;4932690;29;20457;-70
2022/08/07 12:45:54;;;;;;;11.20;10.90;;;33.30;35.20;;;;;;4932690;29;20877;-71
2022/08/07 12:48:32;;;;;;;11.60;11.20;;;33.60;34.80;;;;;;4932760;29;20457;-71
2022/08/07 12:51:04;;;;;;;11.40;11.00;;;34.70;33.80;;;;;;4932649;29;20492;-71
2022/08/07 12:53:40;;;;;;;12.00;11.70;;;33.90;33.70;;;;;;4932678;29;20928;-70
2022/08/07 12:56:12;;;;;;;11.73;11.33;;;33.50;34.30;;;;;;4932597;29;20453;-70
2022/08/07 12:58:44;;;;;;;11.50;11.20;;;34.20;33.90;;;;;;4932729;29;20445;-71
2022/08/07 13:01:27;;;;;;;11.07;10.67;;;33.40;34.00;;;;;;4932562;29;20893;-71
2022/08/07 13:04:15;;;;;;;11.70;11.30;;;32.40;35.50;;;;;;4932581;29;20462;-70
2022/08/07 13:06:59;;;;;;;11.50;11.20;;;31.70;36.80;;;;;;4932553;29;20457;-71
2022/08/07 13:09:43;;;;;;;11.80;11.40;;;31.60;36.80;;;;;;4936324;29;20619;-70
2022/08/07 13:12:18;;;;;;;11.30;11.00;;;31.30;37.10;;;;;;4936129;29;20738;-71
2022/08/07 13:14:57;;;;;;;11.83;11.53;;;31.50;37.30;;;;;;4936590;29;20461;-70
2022/08/07 13:17:34;;;;;;;11.50;11.20;;;32.60;36.10;;;;;;4936344;29;20487;-70
2022/08/07 13:20:09;;;;;;;11.20;10.90;;;32.80;35.60;;;;;;4936498;29;20481;-71
2022/08/07 13:22:41;;;;;;;12.10;11.70;;;32.60;36.10;;;;;;4936533;29;20951;-72
2022/08/07 13:25:12;;;;;;;12.13;11.73;;;32.80;35.80;;;;;;4936269;29;20465;-70
2022/08/07 13:27:45;;;;;;;11.97;11.57;;;33.40;35.70;;;;;;4936066;29;20862;-72
2022/08/07 13:30:13;;;;;;;11.87;11.47;;;33.50;35.10;;;;;;4936152;29;20461;-70
2022/08/07 13:32:48;;;;;;;11.20;10.90;;;34.20;34.80;;;;;;4935800;29;20862;-71
2022/08/07 13:35:28;;;;;;;12.10;11.70;;;34.20;34.10;;;;;;4936005;29;20815;-73
2022/08/07 13:38:01;;;;;;;12.50;12.10;;;33.50;34.60;;;;;;4936075;29;20503;-70
2022/08/07 13:40:33;;;;;;;12.13;11.73;;;33.30;35.00;;;;;;4935888;29;20457;-71
2022/08/07 13:43:09;;;;;;;11.77;11.37;;;33.30;35.20;;;;;;4936006;29;20944;-71
2022/08/07 13:45:40;;;;;;;11.67;11.27;;;32.60;35.30;;;;;;4935906;29;20491;-71
2022/08/07 13:48:10;;;;;;;12.10;11.70;;;31.50;36.50;;;;;;4935814;29;20461;-71
2022/08/07 13:50:40;;;;;;;11.60;11.20;;;31.50;37.20;;;;;;4935461;29;20457;-70
2022/08/07 13:53:08;;;;;;;11.20;10.80;;;31.20;37.00;;;;;;4935614;29;20842;-69
2022/08/07 13:55:41;;;;;;;12.27;11.77;;;31.50;37.20;;;;;;4935781;29;20468;-71
2022/08/07 14:00:55;;;;;;;10.77;10.37;;;32.30;36.50;;;;;;4935761;29;20769;-71
2022/08/07 14:03:25;;;;;;;12.20;11.80;;;33.10;35.30;;;;;;4935574;29;20603;-69
2022/08/07 14:05:55;;;;;;;12.00;11.70;;;32.90;35.20;;;;;;4935327;29;20457;-70
2022/08/07 14:08:23;;;;;;;11.47;11.10;;;32.80;35.10;;;;;;4935612;29;20531;-71
2022/08/07 14:10:56;;;;;;;12.73;12.33;;;33.10;35.30;;;;;;4935826;29;20492;-71
2022/08/07 14:13:30;;;;;;;12.80;12.30;;;33.90;34.30;;;;;;4933880;29;20464;-70
2022/08/07 14:16:02;;;;;;;11.40;11.10;;;33.70;33.90;;;;;;4931866;29;20491;-71
2022/08/07 14:18:32;;;;;;;11.83;11.43;;;33.30;34.40;;;;;;4935005;29;20492;-71
2022/08/07 14:21:05;;;;;;;11.67;11.27;;;32.60;34.30;;;;;;4935228;29;20462;-71
2022/08/07 14:23:35;;;;;;;12.50;11.90;;;31.80;35.30;;;;;;4935504;29;20454;-71
2022/08/07 14:26:10;;;;;;;12.00;11.60;;;31.70;35.70;;;;;;4935489;29;20481;-71
2022/08/07 14:28:40;;;;;;;11.53;11.23;;;32.70;35.10;;;;;;4935239;29;20457;-71
2022/08/07 14:31:07;;;;;;;12.20;11.80;;;32.40;34.90;;;;;;4935290;29;20874;-71
2022/08/07 14:33:34;;;;;;;11.27;10.97;;;32.40;35.20;;;;;;4935370;29;20458;-70
2022/08/07 14:36:03;;;;;;;12.23;11.83;;;32.60;34.90;;;;;;4935224;29;20464;-71
2022/08/07 14:38:31;;;;;;;11.63;11.33;;;33.20;34.80;;;;;;4934880;29;20497;-71
2022/08/07 14:41:00;;;;;;;11.40;11.00;;;33.50;33.80;;;;;;4933008;29;20513;-70
2022/08/07 14:43:30;;;;;;;11.63;11.33;;;34.20;33.40;;;;;;4934970;29;20983;-70
2022/08/07 14:45:59;;;;;;;13.30;12.90;;;33.40;33.40;;;;;;4934902;29;20513;-70
2022/08/07 14:48:29;;;;;;;13.03;12.63;;;32.80;34.50;;;;;;4934911;29;20996;-70
2022/08/07 14:50:58;;;;;;;11.97;11.40;;;32.30;35.00;;;;;;4934662;29;20461;-70
2022/08/07 14:53:27;;;;;;;11.73;11.37;;;32.20;35.20;;;;;;4934777;29;20714;-70
2022/08/07 14:55:55;;;;;;;11.63;11.23;;;31.70;35.60;;;;;;4934576;29;20500;-70
2022/08/07 14:58:25;;;;;;;11.97;11.57;;;30.50;37.70;;;;;;4934633;29;20489;-70
2022/08/07 15:00:56;;;;;;;12.57;12.00;;;29.70;37.90;;;;;;4934633;29;20454;-70
2022/08/07 15:03:26;;;;;;;10.73;10.43;;;29.20;38.70;;;;;;4934629;29;20462;-70
2022/08/07 15:05:54;;;;;;;12.10;11.70;;;28.80;39.10;;;;;;4934701;29;20525;-70
2022/08/07 15:08:24;;;;;;;11.03;10.60;;;28.80;40.20;;;;;;4934820;29;20465;-70
2022/08/07 15:10:57;;;;;;;9.97;9.67;;;28.80;39.90;;;;;;4934536;29;20481;-70
2022/08/07 15:13:27;;;;;;;10.30;10.00;;;28.60;40.40;;;;;;4934532;29;20556;-69
2022/08/07 15:16:03;;;;;;;10.90;10.60;;;28.30;40.10;;;;;;4934371;29;20835;-70
2022/08/07 15:18:33;;;;;;;11.70;11.20;;;28.30;40.60;;;;;;4934487;29;20496;-70
2022/08/07 15:21:04;;;;;;;11.97;11.47;;;28.10;40.60;;;;;;4934367;29;20450;-70
2022/08/07 15:23:35;;;;;;;11.30;11.00;;;28.10;40.60;;;;;;4934295;29;20524;-70
2022/08/07 15:26:04;;;;;;;11.23;10.93;;;28.10;40.90;;;;;;4934396;29;20532;-70
2022/08/07 15:28:37;;;;;;;10.97;10.50;;;28.10;40.80;;;;;;4932556;29;20803;-70
2022/08/07 15:31:09;;;;;;;11.07;10.77;;;28.10;40.90;;;;;;4931636;29;20539;-70
2022/08/07 15:33:40;;;;;;;11.43;11.07;;;28.10;40.70;;;;;;4934056;29;20963;-70
2022/08/07 15:36:08;;;;;;;11.50;11.10;;;28.00;40.80;;;;;;4934024;29;20488;-70
2022/08/07 15:38:38;;;;;;;10.97;10.57;;;27.90;41.00;;;;;;4933861;29;20907;-70
2022/08/07 15:41:11;;;;;;;11.77;11.37;;;27.80;40.70;;;;;;4934038;29;20461;-70
2022/08/07 15:43:43;;;;;;;11.00;10.70;;;27.70;41.10;;;;;;4933789;29;20464;-71
2022/08/07 15:46:21;;;;;;;12.20;11.77;;;27.80;41.10;;;;;;4933547;29;20457;-68
2022/08/07 15:48:50;;;;;;;11.33;10.93;;;27.90;41.40;;;;;;4933739;29;20458;-69
2022/08/07 15:51:19;;;;;;;11.80;11.30;;;27.90;41.90;;;;;;4933337;29;20457;-68
2022/08/07 15:53:50;;;;;;;10.53;10.23;;;27.90;41.20;;;;;;4933270;29;21001;-68
2022/08/07 15:56:21;;;;;;;10.63;10.33;;;27.80;41.40;;;;;;4933532;29;20476;-68
2022/08/07 15:58:50;;;;;;;11.97;11.57;;;27.80;41.70;;;;;;4933575;29;20515;-68
2022/08/07 16:01:23;;;;;;;12.83;12.43;;;27.70;42.00;;;;;;4933592;29;20453;-69
2022/08/07 16:03:53;;;;;;;11.43;11.03;;;27.80;42.00;;;;;;4933215;29;20518;-69
2022/08/07 16:06:29;;;;;;;12.63;12.23;;;27.80;41.80;;;;;;4933384;29;20454;-69
2022/08/07 16:09:01;;;;;;;11.83;11.33;;;27.70;41.50;;;;;;4932986;29;20453;-69
2022/08/07 16:11:51;;;;;;;10.70;10.40;;;27.70;41.70;;;;;;4932914;29;20489;-69
2022/08/07 16:14:26;;;;;;;11.90;11.50;;;27.50;42.00;;;;;;4933325;29;20462;-69
2022/08/07 16:17:07;;;;;;;11.50;11.10;;;27.40;42.60;;;;;;4933103;29;20461;-68
2022/08/07 16:19:58;;;;;;;10.93;10.63;;;27.30;42.50;;;;;;4933252;29;20557;-68
2022/08/07 16:22:41;;;;;;;10.77;10.47;;;27.30;42.30;;;;;;4932961;29;20441;-69
2022/08/07 16:25:27;;;;;;;13.57;13.00;;;27.20;43.00;;;;;;4933076;29;20536;-69
2022/08/07 16:28:06;;;;;;;12.63;12.20;;;27.20;42.80;;;;;;4932837;29;20825;-69
2022/08/07 16:30:41;;;;;;;10.30;10.00;;;27.20;42.70;;;;;;4933064;29;20504;-69
2022/08/07 16:33:14;;;;;;;11.40;11.00;;;27.20;43.00;;;;;;4932848;29;20448;-69
2022/08/07 16:35:45;;;;;;;11.10;10.70;;;27.20;43.30;;;;;;4932822;29;20450;-69
2022/08/07 16:38:30;;;;;;;11.70;11.10;;;27.30;43.30;;;;;;4932640;29;21023;-69
2022/08/07 16:41:35;;;;;;;12.17;11.63;;;27.20;42.60;;;;;;4932875;29;20496;-68
2022/08/07 16:44:20;;;;;;;13.50;13.10;;;27.20;43.10;;;;;;4892531;29;20957;-69
2022/08/07 16:47:06;;;;;;;12.30;11.80;;;27.10;42.50;;;;;;4930482;29;20556;-70
2022/08/07 16:50:02;;;;;;;10.60;10.20;;;27.10;42.50;;;;;;4933175;29;20512;-71
2022/08/07 16:52:43;;;;;;;11.23;10.83;;;27.10;42.60;;;;;;4912582;29;20508;-69
2022/08/07 16:55:25;;;;;;;11.40;10.80;;;27.00;42.30;;;;;;4932590;29;20508;-69
2022/08/07 16:57:59;;;;;;;11.10;10.80;;;27.00;42.10;;;;;;4932727;29;20500;-70
2022/08/07 17:00:37;;;;;;;11.90;11.50;;;27.00;42.40;;;;;;4937412;29;20503;-70
2022/08/07 17:03:17;;;;;;;12.33;11.83;;;26.90;42.30;;;;;;4942696;29;20503;-70
2022/08/07 17:06:03;;;;;;;11.30;11.00;;;26.90;42.70;;;;;;4942585;29;20448;-70
2022/08/07 17:08:36;;;;;;;11.17;10.77;;;26.80;42.50;;;;;;4938420;29;20847;-70
2022/08/07 17:11:13;;;;;;;11.50;11.10;;;26.90;42.80;;;;;;4940674;28;20469;-70
2022/08/07 17:13:51;;;;;;;11.10;10.70;;;26.90;43.00;;;;;;4940959;29;20449;-70
2022/08/07 17:16:25;;;;;;;10.47;10.17;;;26.80;42.10;;;;;;4940865;29;20461;-70
2022/08/07 17:19:04;;;;;;;11.17;10.70;;;26.80;41.90;;;;;;4938746;29;20485;-70
2022/08/07 17:21:42;;;;;;;10.40;10.10;;;26.80;41.70;;;;;;4938636;29;20480;-70
2022/08/07 17:24:41;;;;;;;10.50;10.10;;;26.80;42.10;;;;;;4931806;29;20449;-70
2022/08/07 17:27:15;;;;;;;11.53;11.00;;;26.70;42.00;;;;;;4931747;29;20826;-69
2022/08/07 17:29:59;;;;;;;11.07;10.70;;;26.80;42.30;;;;;;4931751;29;20569;-70
2022/08/07 17:32:31;;;;;;;11.23;10.83;;;26.70;42.20;;;;;;4931701;29;20461;-70
2022/08/07 17:35:05;;;;;;;10.30;9.90;;;26.80;43.00;;;;;;4931705;29;20461;-70
2022/08/07 17:37:44;;;;;;;10.87;10.53;;;26.80;42.30;;;;;;4931973;29;20801;-70
2022/08/07 17:40:25;;;;;;;11.10;10.70;;;26.70;42.20;;;;;;4931473;29;20461;-70
2022/08/07 17:43:02;;;;;;;10.60;10.30;;;26.70;42.00;;;;;;4931750;29;20789;-70
2022/08/07 17:45:35;;;;;;;11.30;10.90;;;26.60;42.00;;;;;;4931821;29;20457;-69
2022/08/07 17:48:08;;;;;;;10.93;10.60;;;26.70;42.30;;;;;;4931875;29;20513;-69
2022/08/07 17:50:48;;;;;;;9.50;9.20;;;26.70;42.50;;;;;;4931876;29;20454;-69
2022/08/07 17:53:30;;;;;;;9.93;9.63;;;26.70;42.20;;;;;;4931568;29;20843;-69
2022/08/07 17:56:03;;;;;;;11.07;10.67;;;26.60;42.10;;;;;;4934968;29;21031;-70
2022/08/07 17:58:37;;;;;;;10.80;10.40;;;26.60;42.40;;;;;;4935281;29;20525;-70
2022/08/07 18:01:11;;;;;;;11.23;10.73;;;26.60;42.40;;;;;;4935147;29;20943;-70
2022/08/07 18:03:47;;;;;;;10.43;9.93;;;26.70;42.40;;;;;;4935443;29;20547;-69
2022/08/07 18:06:15;;;;;;;10.13;9.83;;;26.60;42.00;;;;;;4935025;29;20471;-70
2022/08/07 18:08:49;;;;;;;10.60;10.30;;;26.60;42.20;;;;;;4934997;29;20512;-69
2022/08/07 18:11:22;;;;;;;10.30;9.80;;;26.50;42.10;;;;;;4934821;29;20489;-69
2022/08/07 18:13:56;;;;;;;11.23;10.73;;;26.50;42.00;;;;;;4935367;29;20939;-69
2022/08/07 18:16:33;;;;;;;11.33;10.83;;;26.40;42.20;;;;;;4934860;29;20453;-69
2022/08/07 18:19:10;;;;;;;10.57;10.17;;;26.30;41.80;;;;;;4934727;29;20991;-69
2022/08/07 18:21:40;;;;;;;10.60;10.30;;;26.20;41.80;;;;;;4930147;29;20469;-69
2022/08/07 18:24:20;;;;;;;10.50;10.10;;;26.10;41.70;;;;;;4934439;29;20461;-69
2022/08/07 18:27:14;;;;;;;10.70;10.10;;;26.10;41.80;;;;;;4915652;29;20454;-68
2022/08/07 18:30:00;;;;;;;10.30;9.83;;;26.00;41.30;;;;;;4923725;29;20516;-68
2022/08/07 18:32:52;;;;;;;9.67;9.37;;;25.90;40.70;;;;;;4932662;29;20461;-68
2022/08/07 18:35:26;;;;;;;10.70;10.30;;;25.80;40.80;;;;;;4934402;29;20457;-68
2022/08/07 18:38:06;;;;;;;10.43;10.03;;;25.70;40.90;;;;;;4934045;29;20460;-69
2022/08/07 18:40:44;;;;;;;9.80;9.50;;;25.70;40.70;;;;;;4912055;29;20521;-68
2022/08/07 18:43:13;;;;;;;10.80;10.40;;;25.60;40.70;;;;;;4915082;29;20485;-68
2022/08/07 18:45:47;;;;;;;10.67;10.27;;;25.50;41.10;;;;;;4915304;29;20450;-68
2022/08/07 18:48:23;;;;;;;10.73;10.23;;;25.40;41.40;;;;;;4915035;29;20481;-68
2022/08/07 18:51:08;;;;;;;10.80;10.40;;;25.30;41.50;;;;;;4915399;29;20450;-68
2022/08/07 18:54:03;;;;;;;11.03;10.50;;;25.10;41.90;;;;;;4915501;29;20457;-68
2022/08/07 18:56:42;;;;;;;10.30;9.90;;;25.10;41.90;;;;;;4913842;29;20943;-68
2022/08/07 18:59:24;;;;;;;10.00;9.70;;;25.00;42.10;;;;;;4914859;29;20494;-67
2022/08/07 19:01:59;;;;;;;10.03;9.63;;;24.90;42.20;;;;;;4914970;29;20458;-68
2022/08/07 19:04:32;;;;;;;10.13;9.73;;;24.90;42.60;;;;;;4914945;29;20466;-68
2022/08/07 19:07:04;;;;;;;10.23;9.90;;;24.80;42.60;;;;;;4929288;29;20868;-68
2022/08/07 19:09:41;;;;;;;9.80;9.50;;;24.70;42.90;;;;;;4917575;29;20492;-68
2022/08/07 19:12:19;;;;;;;10.50;10.10;;;24.70;43.10;;;;;;4931729;29;20579;-68
2022/08/07 19:15:14;;;;;;;10.03;9.57;;;24.60;43.30;;;;;;4933858;29;20481;-68
2022/08/07 19:17:53;;;;;;;9.27;8.87;;;24.40;43.40;;;;;;4945597;29;20456;-68
2022/08/07 19:20:28;;;;;;;10.30;9.70;;;24.40;43.50;;;;;;4952848;28;20472;-69
2022/08/07 19:23:01;;;;;;;9.40;9.10;;;24.30;43.70;;;;;;4952728;28;20544;-68
2022/08/07 19:25:32;;;;;;;9.70;9.20;;;24.30;43.90;;;;;;4952630;28;20449;-68
2022/08/07 19:28:03;;;;;;;9.70;9.30;;;24.30;44.10;;;;;;4952536;28;20503;-68
2022/08/07 19:30:33;;;;;;;9.20;8.90;;;24.10;44.30;;;;;;4952741;28;20658;-68